sim
Sign-in with your pilot id or email,
or register
Callsign
Passwort

Schedule Details

Flight Number: DLH413
Departure: New York Newark Liberty International Airport (KEWR) at 01:50
Arrival: Munich Airport (EDDM) at 09:20
Route: Lufthansa Passenger Schedule. Enter filed route here before submitting Pirep.

Weather Information
Getting current METAR information for KEWR 291600Z 15005KT 7SM -RA FEW013 BKN025 OVC033 23/21 A2986 RMK AO2 BKN V SCT P0000 T02280206
Getting current METAR information for EDDM 291550Z 26008KT 230V290 9999 BKN014 12/09 Q1019 NOSIG

Schedule Frequency

Route Map